Nearby METAR Reports

 

K9MN - St Mary Hospital, Minnesota, USA
Distance from station: SW 3mi, 4km
Updated: 02/19/2018 9:15pm
Overcast
Overcast
 Wind from N
Wind: N 5 mph , 7 km/h
Temperature: 25°F , -4°C
Wind Chill: 19°F , -7°C
Dew Point: 25°F , -4°C
Humidity: 100%
Barometer: 29.81 inHg , 1009.5 hPa
Clouds: Overcast
Visibility: 5 miles , 8 km
Cloud details: Overcast 300 ft
2018/02/20 03:15 K9MN 200315Z AUTO 01004KT 5SM OVC003 M04/M04 A2981 RMK AO1 T10451045
KRST - Rochester, Minnesota, USA
Distance from station: SSW 10mi, 16km
Updated: 02/19/2018 8:54pm
Light snow, Mist, Overcast
Light snow, Mist, Overcast
 Wind from N
Wind: N 14 mph , 22 km/h
Temperature: 25°F , -4°C
Wind Chill: 13°F , -11°C
Dew Point: 23°F , -5°C
Humidity: 93%
Barometer: 29.79 inHg , 1008.8 hPa
Summary: Light snow, Mist
Clouds: Overcast
Visibility: 2 1/2 miles , 4 km
Cloud details: Overcast 300 ft
2018/02/20 02:54 KRST 200254Z 01012KT 2 1/2SM -SN BR OVC003 M04/M05 A2979 RMK AO2 SLP105 P0000 60000 I1000 I3002 T10441050 51009
 
KTOB - Dodge Center, Minnesota, USA
Distance from station: W 19mi, 30km
Updated: 02/19/2018 9:15pm
Mist, Overcast
Mist, Overcast
 Wind from NNE
Wind: NNE 10 mph , 17 km/h
Temperature: 21°F , -6°C
Wind Chill: 10°F , -12°C
Dew Point: 21°F , -6°C
Humidity: 100%
Barometer: 29.80 inHg , 1009.1 hPa
Summary: Mist
Clouds: Overcast
Visibility: 4 miles , 6 km
Cloud details: Overcast 400 ft
2018/02/20 03:15 KTOB 200315Z AUTO 02009KT 4SM BR OVC004 M06/M06 A2980 RMK AO2
KFKA - Preston, Minnesota, USA
Distance from station: SSE 28mi, 45km
Updated: 02/19/2018 9:15pm
Mist, Overcast
Mist, Overcast
 Wind from N
Wind: N 9 mph , 15 km/h
Temperature: 28°F , -2°C
Wind Chill: 19°F , -7°C
Dew Point: 27°F , -3°C
Humidity: 93%
Barometer: 29.78 inHg , 1008.5 hPa
Summary: Mist
Clouds: Overcast
Visibility: 1 3/4 miles , 2.8 km
Cloud details: Overcast 200 ft
2018/02/20 03:15 KFKA 200315Z AUTO 36008KT 1 3/4SM BR OVC002 M02/M03 A2978 RMK AO2 T10251030
 
KAUM - Austin Muni, Minnesota, USA
Distance from station: SW 35mi, 57km
Updated: 02/19/2018 9:15pm
Mist, Overcast
Mist, Overcast
 Wind from NNE
Wind: NNE 7 mph , 11 km/h
Temperature: 25°F , -4°C
Wind Chill: 17°F , -8°C
Dew Point: 21°F , -6°C
Humidity: 86%
Barometer: 29.79 inHg , 1008.8 hPa
Summary: Mist
Clouds: Overcast
Visibility: 3 miles , 5 km
Cloud details: Overcast 500 ft
2018/02/20 03:15 KAUM 200315Z AUTO 03006KT 3SM BR OVC005 M04/M06 A2979 RMK AO2
KONA - Winona Muni, Minnesota, USA
Distance from station: E 37mi, 59km
Updated: 02/19/2018 9:15pm
Mist, Overcast
Mist, Overcast
 Wind from calm
Wind: Calm
Temperature: 30°F , -1°C
Dew Point: 28°F , -2°C
Humidity: 93%
Barometer: 29.81 inHg , 1009.5 hPa
Summary: Mist
Clouds: Overcast
Visibility: 5 miles , 8 km
Cloud details: Overcast 800 ft
2018/02/20 03:15 KONA 200315Z AUTO 00000KT 5SM BR OVC008 M01/M02 A2981 RMK AO2
 
KRGK - Red Wing, Minnesota, USA
Distance from station: N 38mi, 61km
Updated: 02/19/2018 9:15pm
Haze, Overcast
Haze, Overcast
 Wind from ENE
Wind: ENE 8 mph , 13 km/h
Temperature: 23°F , -5°C
Wind Chill: 14°F , -10°C
Dew Point: 18°F , -8°C
Humidity: 80%
Barometer: 29.86 inHg , 1011.2 hPa
Summary: Haze
Clouds: Overcast
Visibility: 4 miles , 6 km
Cloud details: Overcast 1000 ft
2018/02/20 03:15 KRGK 200315Z AUTO 06007KT 4SM HZ OVC010 M05/M08 A2986 RMK AO2
KOWA - Owatonna, Minnesota, USA
Distance from station: W 41mi, 65km
Updated: 02/19/2018 9:13pm
Mist, Overcast
Mist, Overcast
 Wind from N
Wind: N 8 mph , 13 km/h
Temperature: 23°F , -5°C
Wind Chill: 14°F , -10°C
Dew Point: 21°F , -6°C
Humidity: 93%
Barometer: 29.82 inHg , 1009.8 hPa
Summary: Mist
Clouds: Overcast
Visibility: 5 miles , 8 km
Cloud details: Overcast 600 ft
2018/02/20 03:13 KOWA 200313Z AUTO 01007KT 5SM BR OVC006 M05/M06 A2982 RMK AO2
 
KSYN - Stanton, Minnesota, USA
Distance from station: NW 42mi, 68km
Updated: 02/19/2018 9:15pm
Mist, Overcast
Mist, Overcast
 Wind from NNE
Wind: NNE 10 mph , 17 km/h
Temperature: 23°F , -5°C
Wind Chill: 13°F , -11°C
Dew Point: 21°F , -6°C
Humidity: 93%
Barometer: 29.85 inHg , 1010.8 hPa
Summary: Mist
Clouds: Overcast
Visibility: 3 miles , 5 km
Cloud details: Overcast 400 ft
2018/02/20 03:15 KSYN 200315Z AUTO 02009KT 3SM BR OVC004 M05/M06 A2985 RMK AO2 T10501061
KFBL - Faribault Muni, Minnesota, USA
Distance from station: WNW 48mi, 77km
Updated: 02/19/2018 9:15pm
Mist, Overcast
Mist, Overcast
 Wind from N
Wind: N 9 mph , 15 km/h
Temperature: 21°F , -6°C
Wind Chill: 11°F , -12°C
Dew Point: 19°F , -7°C
Humidity: 93%
Barometer: 29.86 inHg , 1011.2 hPa
Summary: Mist
Clouds: Overcast
Visibility: 5 miles , 8 km
Cloud details: Overcast 500 ft
2018/02/20 03:15 KFBL 200315Z AUTO 01008KT 5SM BR OVC005 M06/M07 A2986 RMK AO2